Douglas B — WDH8545 — position and weather

sailwx.info

Track history (hours):
 
Tides and Currents Weather Stations Pressure Air Temp Water Temp Dewpoint Dewpoint Depression Visibility Wind Speed Wind Dir Waves Ship Positions

Douglas B

Owner: TK TOWING, INC, MORGAN CITY, LA. More information available from US FCC via Universal Licensing System and Coast Guard Vessel Documentation Center.

Last reported at 2017-Oct-28 18:36 UTC. Time now 2017-Nov-24 03:47 UTC.
Position N 29°32' W 090°50'.
Warning: this ship's position is 26 days out of date.

Length 22 m; draft 8 m.

Type: Towing. MMSI: 367659090.

Date/timePositionNaut miles runAvg speedWind from/ knotsBaromVisibWave heightAir tempDewpointWater temp
2017-Oct-28 18:36N 29°32' W 090°50'1 7.0
2017-Oct-28 18:25N 29°32' W 090°49'3 6.1
2017-Oct-28 18:00N 29°32' W 090°46'2 4.6
2017-Oct-28 17:30N 29°34' W 090°44'3 5.6
2017-Oct-28 17:00N 29°36' W 090°43'1 1.6
2017-Oct-28 16:30N 29°37' W 090°42'3 5.9
2017-Oct-28 15:59N 29°35' W 090°39'3 5.8
2017-Oct-28 15:30N 29°35' W 090°35'4 6.7
2017-Oct-28 14:55N 29°34' W 090°31'  
2017-Oct-19 18:45N 29°34' W 090°31'1 6.2
2017-Oct-19 18:31N 29°34' W 090°32'3 6.6
2017-Oct-19 18:00N 29°35' W 090°36'3 6.5
2017-Oct-19 17:30N 29°36' W 090°39'3 5.5
2017-Oct-19 17:01N 29°36' W 090°43'3 5.5
2017-Oct-19 16:30N 29°34' W 090°44'3 5.8
2017-Oct-19 16:01N 29°32' W 090°47'  
Track history (hours):
 
Tides and Currents Weather Stations Pressure Air Temp Water Temp Dewpoint Dewpoint Depression Visibility Wind Speed Wind Dir Waves Ship Positions

Douglas B

Owner: TK TOWING, INC, MORGAN CITY, LA. More information available from US FCC via Universal Licensing System and Coast Guard Vessel Documentation Center.

Last reported at 2017-Oct-28 18:36 UTC. Time now 2017-Nov-24 03:47 UTC.
Position N 29°32' W 090°50'.
Warning: this ship's position is 26 days out of date.

Length 22 m; draft 8 m.

Type: Towing. MMSI: 367659090.

Date/timePositionNaut miles runAvg speedWind from/ knotsBaromVisibWave heightAir tempDewpointWater temp
2017-Oct-28 18:36N 29°32' W 090°50'1 7.0
2017-Oct-28 18:25N 29°32' W 090°49'3 6.1
2017-Oct-28 18:00N 29°32' W 090°46'2 4.6
2017-Oct-28 17:30N 29°34' W 090°44'3 5.6
2017-Oct-28 17:00N 29°36' W 090°43'1 1.6
2017-Oct-28 16:30N 29°37' W 090°42'3 5.9
2017-Oct-28 15:59N 29°35' W 090°39'3 5.8
2017-Oct-28 15:30N 29°35' W 090°35'4 6.7
2017-Oct-28 14:55N 29°34' W 090°31'  
2017-Oct-19 18:45N 29°34' W 090°31'1 6.2
2017-Oct-19 18:31N 29°34' W 090°32'3 6.6
2017-Oct-19 18:00N 29°35' W 090°36'3 6.5
2017-Oct-19 17:30N 29°36' W 090°39'3 5.5
2017-Oct-19 17:01N 29°36' W 090°43'3 5.5
2017-Oct-19 16:30N 29°34' W 090°44'3 5.8
2017-Oct-19 16:01N 29°32' W 090°47'  

Dump ship's entire track history